Terminal Aerodrome Forecast
Issued by NWS

Home | Current Version | Previous Version | Text Only | Print | Product List | Glossary Off
Versions: 1 2 3 4 5 6 7 8 9 10 11 12 13 14 15 16 17 18 19 20 21 22

000
FTUS43 KABR 211400 AAA
TAFPIR
TAF AMD
KPIR 211448Z 2115/2212 10009KT P6SM SCT008
     FM211600 14009KT P6SM BKN200
     FM220000 32011KT P6SM SKC=

USA.gov is the U.S. government's official web portal to all federal, state and local government web resources and services.